createdAt,value
2022-09-04T00:02:50.293Z,85.23
2022-09-04T00:05:36.595Z,83.78
2022-09-04T00:08:50.758Z,85.08
2022-09-04T00:11:53.712Z,86.87
2022-09-04T00:14:52.646Z,88.95
2022-09-04T00:18:07.301Z,84.74
2022-09-04T00:21:21.617Z,83.47
2022-09-04T00:24:15.646Z,81.46
2022-09-04T00:27:18.256Z,81.25
2022-09-04T00:30:08.375Z,81.76
2022-09-04T00:33:08.424Z,82.73
2022-09-04T00:35:58.858Z,83.22
2022-09-04T00:38:48.899Z,85.21
2022-09-04T00:41:41.117Z,84.95
2022-09-04T00:44:47.582Z,84.96
2022-09-04T00:47:42.177Z,85.21
2022-09-04T00:50:41.071Z,83.44
2022-09-04T00:54:02.068Z,82.71
2022-09-04T00:57:16.850Z,83.10
2022-09-04T01:00:16.599Z,85.71
2022-09-04T01:03:33.427Z,85.65
2022-09-04T01:06:42.101Z,86.61
2022-09-04T01:09:44.177Z,85.36
2022-09-04T01:12:50.194Z,83.36
2022-09-04T01:15:43.645Z,84.32
2022-09-04T01:18:48.276Z,83.44
2022-09-04T01:21:59.787Z,82.46
2022-09-04T01:24:54.095Z,81.79
2022-09-04T01:27:55.554Z,81.34
2022-09-04T01:30:52.340Z,79.00
2022-09-04T01:33:48.296Z,79.80
2022-09-04T01:36:58.501Z,79.68
2022-09-04T01:40:03.396Z,83.01
2022-09-04T01:43:23.317Z,85.78
2022-09-04T01:46:58.363Z,81.74
2022-09-04T01:49:56.440Z,86.70
2022-09-04T01:53:20.240Z,85.02
2022-09-04T01:56:15.582Z,83.01
2022-09-04T01:59:36.180Z,82.71
2022-09-04T02:02:41.519Z,83.23
2022-09-04T02:05:50.138Z,86.78
2022-09-04T02:08:55.267Z,89.20
2022-09-04T02:11:56.859Z,87.15
2022-09-04T02:14:46.261Z,82.47
2022-09-04T02:17:56.309Z,82.06
2022-09-04T02:21:10.990Z,83.01
2022-09-04T02:24:02.598Z,85.00
2022-09-04T02:27:16.183Z,84.68
2022-09-04T02:30:10.239Z,84.02
2022-09-04T02:32:59.583Z,83.89
2022-09-04T02:35:57.808Z,86.86
2022-09-04T02:39:06.350Z,82.97
2022-09-04T02:42:22.769Z,81.11
2022-09-04T02:45:43.116Z,83.10
2022-09-04T02:48:40.377Z,82.32
2022-09-04T02:51:45.617Z,81.82
2022-09-04T02:54:54.037Z,82.82
2022-09-04T02:57:55.106Z,82.18
2022-09-04T03:00:55.872Z,81.64
2022-09-04T03:03:50.384Z,81.78
2022-09-04T03:06:58.476Z,81.93
2022-09-04T03:09:45.675Z,83.07
2022-09-04T03:12:45.989Z,83.04
2022-09-04T03:15:45.816Z,82.15
2022-09-04T03:19:02.372Z,80.42
2022-09-04T03:22:04.487Z,79.16
2022-09-04T03:25:32.712Z,81.75
2022-09-04T03:28:34.751Z,81.61
2022-09-04T03:31:27.041Z,80.66
2022-09-04T03:34:38.789Z,80.54
2022-09-04T03:37:40.742Z,81.33
2022-09-04T03:40:29.780Z,82.32
2022-09-04T03:43:42.203Z,83.15
2022-09-04T03:46:42.927Z,82.26
2022-09-04T03:49:49.756Z,82.97
2022-09-04T03:53:00.952Z,83.19
2022-09-04T03:56:06.948Z,82.37
2022-09-04T03:59:05.619Z,81.29
2022-09-04T04:02:02.265Z,80.78
2022-09-04T04:05:01.734Z,82.59
2022-09-04T04:08:20.914Z,82.68
2022-09-04T04:11:19.734Z,81.32
2022-09-04T04:14:22.859Z,81.09
2022-09-04T04:17:24.366Z,81.33
2022-09-04T04:20:38.237Z,81.49
2022-09-04T04:23:57.674Z,81.54
2022-09-04T04:26:43.846Z,84.45
2022-09-04T04:29:40.753Z,83.45
2022-09-04T04:32:48.522Z,83.50
2022-09-04T04:36:17.676Z,84.20
2022-09-04T04:39:14.733Z,84.68
2022-09-04T04:42:21.171Z,84.71
2022-09-04T04:45:38.173Z,85.79
2022-09-04T04:49:04.299Z,83.40
2022-09-04T04:52:21.558Z,85.19
2022-09-04T04:55:18.193Z,83.43
2022-09-04T04:58:11.478Z,85.18
2022-09-04T05:01:13.131Z,83.44
2022-09-04T05:04:17.866Z,83.47
2022-09-04T05:07:12.812Z,82.93
2022-09-04T05:10:22.530Z,82.61
2022-09-04T05:13:20.809Z,82.33
2022-09-04T05:16:19.099Z,82.80
2022-09-04T05:19:29.208Z,84.20
2022-09-04T05:22:52.966Z,81.34
2022-09-04T05:25:41.086Z,83.89
2022-09-04T05:28:38.800Z,84.28
2022-09-04T05:31:32.637Z,82.82
2022-09-04T05:34:51.731Z,80.99
2022-09-04T05:37:58.011Z,80.14
2022-09-04T05:41:05.670Z,84.47
2022-09-04T05:44:20.299Z,83.42
2022-09-04T05:47:45.248Z,80.94
2022-09-04T05:51:05.802Z,82.81
2022-09-04T05:54:07.114Z,82.69
2022-09-04T05:57:05.318Z,84.50
2022-09-04T06:00:05.753Z,84.78
2022-09-04T06:03:16.957Z,83.48
2022-09-04T06:06:15.902Z,81.36
2022-09-04T06:09:39.784Z,80.83
2022-09-04T06:12:41.979Z,81.52
2022-09-04T06:15:32.147Z,81.57
2022-09-04T06:18:28.772Z,80.98
2022-09-04T06:21:23.941Z,80.30
2022-09-04T06:24:26.124Z,80.52
2022-09-04T06:27:33.823Z,80.20
2022-09-04T06:30:22.130Z,82.05
2022-09-04T06:33:20.982Z,82.63
2022-09-04T06:36:30.713Z,81.32
2022-09-04T06:39:30.752Z,82.73
2022-09-04T06:42:48.642Z,80.48
2022-09-04T06:46:13.259Z,79.74
2022-09-04T06:49:15.777Z,77.47
2022-09-04T06:52:26.225Z,80.48
2022-09-04T06:55:29.166Z,80.68
2022-09-04T06:58:41.060Z,78.31
2022-09-04T07:01:52.793Z,81.02
2022-09-04T07:05:04.434Z,80.88
2022-09-04T07:08:02.937Z,78.10
2022-09-04T07:11:03.901Z,77.40
2022-09-04T07:13:50.435Z,77.21
2022-09-04T07:16:49.265Z,74.90
2022-09-04T07:19:41.880Z,76.48
2022-09-04T07:22:35.361Z,77.52
2022-09-04T07:25:23.424Z,73.54
2022-09-04T07:28:36.528Z,76.53
2022-09-04T07:31:35.196Z,74.57
2022-09-04T07:34:43.397Z,72.23
2022-09-04T07:37:43.959Z,73.89
2022-09-04T07:40:38.288Z,77.18
2022-09-04T07:43:33.746Z,74.84
2022-09-04T07:46:40.285Z,73.56
2022-09-04T07:49:36.069Z,73.19
2022-09-04T07:52:43.776Z,72.51
2022-09-04T07:55:37.766Z,74.64
2022-09-04T07:58:45.694Z,73.70
2022-09-04T08:02:06.762Z,73.56
2022-09-04T08:04:59.435Z,71.31
2022-09-04T08:08:13.592Z,70.84
2022-09-04T08:11:09.758Z,74.53
2022-09-04T08:14:04.731Z,72.77
2022-09-04T08:17:25.257Z,73.57
2022-09-04T08:20:20.538Z,69.95
2022-09-04T08:23:38.084Z,73.34
2022-09-04T08:26:49.233Z,71.29
2022-09-04T08:29:45.590Z,68.74
2022-09-04T08:33:05.820Z,70.62
2022-09-04T08:35:57.401Z,71.89
2022-09-04T08:39:06.627Z,70.43
2022-09-04T08:41:59.152Z,68.26
2022-09-04T08:45:06.802Z,68.61
2022-09-04T08:48:08.076Z,65.98
2022-09-04T08:51:15.488Z,68.07
2022-09-04T08:54:26.134Z,69.91
2022-09-04T08:57:25.421Z,68.84
2022-09-04T09:00:42.477Z,71.55
2022-09-04T09:03:35.251Z,66.00
2022-09-04T09:06:34.695Z,66.22
2022-09-04T09:09:58.605Z,68.83
2022-09-04T09:13:06.657Z,67.06
2022-09-04T09:16:17.975Z,68.48
2022-09-04T09:19:39.279Z,66.83
2022-09-04T09:23:10.119Z,66.94
2022-09-04T09:26:04.575Z,67.98
2022-09-04T09:29:39.274Z,65.77
2022-09-04T09:32:54.142Z,63.83
2022-09-04T09:35:43.238Z,63.34
2022-09-04T09:38:29.754Z,60.23
2022-09-04T09:41:46.496Z,62.97
2022-09-04T09:44:43.224Z,62.71
2022-09-04T09:48:10.961Z,64.19
2022-09-04T09:51:40.627Z,65.01
2022-09-04T09:54:41.843Z,64.83
2022-09-04T09:57:40.433Z,66.09
2022-09-04T10:00:36.710Z,64.86
2022-09-04T10:03:41.977Z,62.18
2022-09-04T10:07:10.725Z,59.50
2022-09-04T10:10:24.868Z,61.24
2022-09-04T10:13:15.573Z,62.97
2022-09-04T10:16:40.005Z,63.50
2022-09-04T10:20:03.695Z,63.51
2022-09-04T10:23:05.515Z,60.68
2022-09-04T10:26:00.753Z,61.16
2022-09-04T10:29:11.281Z,61.02
2022-09-04T10:32:12.395Z,64.30
2022-09-04T10:35:18.370Z,62.17
2022-09-04T10:38:10.411Z,61.58
2022-09-04T10:41:14.945Z,63.59
2022-09-04T10:44:23.246Z,63.05
2022-09-04T10:47:28.924Z,65.07
2022-09-04T10:50:24.561Z,66.41
2022-09-04T10:53:22.467Z,68.60
2022-09-04T10:56:30.839Z,69.10
2022-09-04T10:59:59.322Z,67.54
2022-09-04T11:02:52.397Z,71.97
2022-09-04T11:06:00.229Z,72.59
2022-09-04T11:09:11.010Z,71.93
2022-09-04T11:12:09.413Z,74.51
2022-09-04T11:15:04.874Z,73.48
2022-09-04T11:17:57.762Z,71.58
2022-09-04T11:21:03.012Z,67.69
2022-09-04T11:24:27.457Z,69.05
2022-09-04T11:27:52.125Z,68.09
2022-09-04T11:30:57.147Z,61.40
2022-09-04T11:34:04.871Z,64.03
2022-09-04T11:37:25.376Z,60.85
2022-09-04T11:40:16.468Z,62.04
2022-09-04T11:43:05.870Z,63.95
2022-09-04T11:46:35.718Z,60.38
2022-09-04T11:50:14.561Z,61.89
2022-09-04T11:53:28.739Z,62.30
2022-09-04T11:56:34.868Z,63.19
2022-09-04T11:59:39.306Z,63.49
2022-09-04T12:02:28.911Z,61.96
2022-09-04T12:05:39.172Z,61.98
2022-09-04T12:08:54.449Z,61.73
2022-09-04T12:11:41.135Z,58.85
2022-09-04T12:14:50.785Z,60.53
2022-09-04T12:17:47.573Z,58.54
2022-09-04T12:20:48.934Z,58.44
2022-09-04T12:23:56.773Z,56.69
2022-09-04T12:26:53.634Z,53.09
2022-09-04T12:30:16.059Z,53.33
2022-09-04T12:33:50.352Z,54.05
2022-09-04T12:36:45.243Z,51.67
2022-09-04T12:39:43.053Z,51.27
2022-09-04T12:42:37.986Z,51.18
2022-09-04T12:45:43.290Z,51.93
2022-09-04T12:48:56.290Z,51.28
2022-09-04T12:51:51.838Z,51.15
2022-09-04T12:54:55.674Z,49.58
2022-09-04T12:58:10.206Z,51.97
2022-09-04T13:01:32.143Z,48.94
2022-09-04T13:04:27.513Z,50.60
2022-09-04T13:07:41.668Z,51.29
2022-09-04T13:10:34.081Z,49.72
2022-09-04T13:13:25.218Z,52.19
2022-09-04T13:16:54.488Z,48.94
2022-09-04T13:20:12.499Z,45.97
2022-09-04T13:23:21.134Z,43.97
2022-09-04T13:26:29.822Z,47.83
2022-09-04T13:29:46.889Z,45.79
2022-09-04T13:33:17.661Z,45.46
2022-09-04T13:36:20.000Z,47.01
2022-09-04T13:39:20.046Z,44.72
2022-09-04T13:42:08.790Z,46.27
2022-09-04T13:45:05.614Z,45.35
2022-09-04T13:48:01.181Z,42.65
2022-09-04T13:50:56.237Z,41.82
2022-09-04T13:53:58.883Z,41.01
2022-09-04T13:56:51.266Z,39.33
2022-09-04T13:59:38.369Z,40.30
2022-09-04T14:02:26.942Z,36.81
2022-09-04T14:05:18.697Z,36.87
2022-09-04T14:08:08.778Z,38.32
2022-09-04T14:11:22.301Z,35.01
2022-09-04T14:14:23.872Z,35.66
2022-09-04T14:17:12.614Z,39.24
2022-09-04T14:20:08.779Z,37.97
2022-09-04T14:23:15.963Z,34.51
2022-09-04T14:26:17.104Z,36.86
2022-09-04T14:29:26.869Z,38.70
2022-09-04T14:32:35.107Z,36.67
2022-09-04T14:35:30.533Z,39.73
2022-09-04T14:38:51.772Z,41.49
2022-09-04T14:41:54.449Z,39.16
2022-09-04T14:45:16.362Z,38.38
2022-09-04T14:48:07.659Z,39.87
2022-09-04T14:50:56.502Z,40.55
2022-09-04T14:54:02.163Z,39.27
2022-09-04T14:56:55.624Z,40.77
2022-09-04T14:59:46.506Z,39.50
2022-09-04T15:02:36.022Z,37.60
2022-09-04T15:05:51.567Z,39.35
2022-09-04T15:08:41.036Z,38.72
2022-09-04T15:11:32.912Z,37.92
2022-09-04T15:14:28.471Z,38.25
2022-09-04T15:17:26.312Z,37.45
2022-09-04T15:20:20.351Z,40.18
2022-09-04T15:23:12.407Z,40.42
2022-09-04T15:26:02.101Z,40.96
2022-09-04T15:29:08.433Z,39.95
2022-09-04T15:32:03.403Z,40.85
2022-09-04T15:35:07.449Z,41.92
2022-09-04T15:38:21.560Z,42.04
2022-09-04T15:41:27.833Z,40.98
2022-09-04T15:44:26.622Z,41.18
2022-09-04T15:47:38.227Z,39.63
2022-09-04T15:50:32.627Z,41.35
2022-09-04T15:53:27.330Z,40.44
2022-09-04T15:56:16.409Z,42.08
2022-09-04T15:59:14.627Z,41.80
2022-09-04T16:02:13.037Z,43.85
2022-09-04T16:05:19.506Z,44.18
2022-09-04T16:08:25.893Z,44.27
2022-09-04T16:11:27.482Z,42.11
2022-09-04T16:14:26.456Z,41.95
2022-09-04T16:17:21.260Z,41.26
2022-09-04T16:20:24.316Z,41.64
2022-09-04T16:23:14.737Z,42.38
2022-09-04T16:26:11.019Z,41.39
2022-09-04T16:29:03.987Z,40.27
2022-09-04T16:31:55.588Z,41.35
2022-09-04T16:35:05.713Z,43.03
2022-09-04T16:37:56.883Z,44.71
2022-09-04T16:40:49.912Z,43.80
2022-09-04T16:43:36.365Z,42.46
2022-09-04T16:46:29.595Z,42.39
2022-09-04T16:49:21.989Z,42.95
2022-09-04T16:52:21.992Z,41.48
2022-09-04T16:55:25.062Z,41.75
2022-09-04T16:58:11.548Z,42.20
2022-09-04T17:01:13.987Z,42.91
2022-09-04T17:04:20.527Z,43.21
2022-09-04T17:07:24.701Z,44.33
2022-09-04T17:10:36.696Z,44.92
2022-09-04T17:13:52.277Z,47.38
2022-09-04T17:17:09.276Z,46.42
2022-09-04T17:20:19.442Z,45.77
2022-09-04T17:28:57.615Z,46.13
2022-09-04T17:29:19.381Z,47.46
2022-09-04T17:29:46.968Z,48.20
2022-09-04T17:35:36.813Z,49.33
2022-09-04T17:40:48.267Z,50.28
2022-09-04T17:40:54.446Z,51.54
2022-09-04T17:43:11.181Z,53.52
2022-09-04T17:46:11.588Z,53.43
2022-09-04T17:48:59.075Z,52.94
2022-09-04T17:51:57.691Z,54.20
2022-09-04T17:54:49.076Z,54.26
2022-09-04T17:57:57.601Z,54.30
2022-09-04T18:01:14.090Z,54.50
2022-09-04T18:04:38.896Z,55.23
2022-09-04T18:08:10.016Z,55.87
2022-09-04T18:10:46.105Z,56.11
2022-09-04T18:13:53.382Z,55.56
2022-09-04T18:17:12.203Z,55.61
2022-09-04T18:20:27.324Z,56.60
2022-09-04T18:23:28.034Z,56.96
2022-09-04T18:26:40.094Z,57.67
2022-09-04T18:31:48.264Z,58.93
2022-09-04T18:37:16.430Z,58.42
2022-09-04T18:37:24.932Z,58.62
2022-09-04T18:39:34.767Z,59.29
2022-09-04T18:50:23.593Z,60.65
2022-09-04T18:50:35.117Z,61.05
2022-09-04T18:50:35.454Z,60.38
2022-09-04T18:52:25.348Z,60.45
2022-09-04T18:55:23.080Z,61.76
2022-09-04T18:58:12.106Z,63.33
2022-09-04T19:01:28.518Z,63.46
2022-09-04T19:04:36.335Z,65.73
2022-09-04T19:07:34.860Z,63.08
2022-09-04T19:10:27.191Z,62.32
2022-09-04T19:13:25.349Z,62.91
2022-09-04T19:16:20.235Z,63.02
2022-09-04T19:19:28.684Z,63.59
2022-09-04T19:22:28.371Z,64.82
2022-09-04T19:25:15.261Z,63.67
2022-09-04T19:28:23.700Z,64.28
2022-09-04T19:31:17.634Z,64.11
2022-09-04T19:34:17.583Z,63.79
2022-09-04T19:38:49.554Z,64.23
2022-09-04T19:46:11.145Z,64.53
2022-09-04T19:46:14.248Z,65.61
2022-09-04T19:47:40.833Z,66.82
2022-09-04T19:53:24.292Z,66.61
2022-09-04T19:53:53.877Z,66.29
2022-09-04T19:57:31.471Z,65.45
2022-09-04T20:00:43.113Z,65.51
2022-09-04T20:03:34.258Z,65.46
2022-09-04T20:06:51.249Z,66.22
2022-09-04T20:09:48.397Z,67.07
2022-09-04T20:12:37.063Z,65.44
2022-09-04T20:15:31.628Z,66.13
2022-09-04T20:18:20.970Z,65.42
2022-09-04T20:21:18.027Z,66.91
2022-09-04T20:24:07.653Z,65.86
2022-09-04T20:27:15.713Z,65.85
2022-09-04T20:30:12.174Z,66.11
2022-09-04T20:33:16.656Z,67.32
2022-09-04T20:36:10.168Z,67.20
2022-09-04T20:39:48.452Z,66.99
2022-09-04T20:42:39.891Z,67.29
2022-09-04T20:49:35.317Z,67.62
2022-09-04T20:52:49.296Z,66.24
2022-09-04T20:52:50.485Z,67.09
2022-09-04T20:55:54.795Z,67.22
2022-09-04T21:03:12.660Z,68.99
2022-09-04T21:03:23.238Z,67.74
2022-09-04T21:06:04.267Z,67.85
2022-09-04T21:09:13.239Z,68.31
2022-09-04T21:12:17.161Z,68.89
2022-09-04T21:15:08.432Z,70.41
2022-09-04T21:18:07.010Z,70.54
2022-09-04T21:21:20.319Z,71.40
2022-09-04T21:24:20.826Z,70.86
2022-09-04T21:27:18.065Z,71.85
2022-09-04T21:30:08.512Z,70.93
2022-09-04T21:33:26.831Z,69.09
2022-09-04T21:36:26.879Z,68.85
2022-09-04T21:39:25.725Z,69.24
2022-09-04T21:42:24.670Z,70.72
2022-09-04T21:45:43.295Z,71.52
2022-09-04T21:48:44.632Z,72.70
2022-09-04T21:51:41.737Z,73.68
2022-09-04T21:56:59.998Z,74.68
2022-09-04T22:02:35.109Z,75.35
2022-09-04T22:02:39.910Z,73.86
2022-09-04T22:05:18.488Z,76.75
2022-09-04T22:13:26.390Z,74.48
2022-09-04T22:13:28.961Z,73.05
2022-09-04T22:14:54.703Z,73.54
2022-09-04T22:18:04.483Z,73.59
2022-09-04T22:21:16.298Z,74.42
2022-09-04T22:24:21.170Z,74.13
2022-09-04T22:27:22.328Z,74.75
2022-09-04T22:30:11.786Z,74.67
2022-09-04T22:33:10.096Z,74.67
2022-09-04T22:36:30.367Z,75.68
2022-09-04T22:39:31.564Z,75.40
2022-09-04T22:42:36.772Z,75.79
2022-09-04T22:45:43.178Z,75.70
2022-09-04T22:49:12.548Z,75.79
2022-09-04T22:52:14.316Z,76.59
2022-09-04T22:55:23.156Z,76.27
2022-09-04T22:58:30.302Z,76.04
2022-09-04T23:01:36.782Z,77.03
2022-09-04T23:04:45.501Z,76.41
2022-09-04T23:13:42.345Z,77.43
2022-09-04T23:13:57.220Z,76.48
2022-09-04T23:14:18.904Z,77.88
2022-09-04T23:17:24.603Z,77.62
2022-09-04T23:26:31.013Z,76.32
2022-09-04T23:26:43.219Z,76.56
2022-09-04T23:27:07.475Z,77.51
2022-09-04T23:30:25.029Z,76.65
2022-09-04T23:33:39.136Z,77.82
2022-09-04T23:36:46.524Z,77.23
2022-09-04T23:40:26.695Z,77.04
2022-09-04T23:43:42.380Z,77.52
2022-09-04T23:46:44.992Z,77.07
2022-09-04T23:49:42.444Z,77.29
2022-09-04T23:53:20.270Z,77.73
2022-09-04T23:56:35.793Z,78.67
2022-09-04T23:59:50.572Z,77.95
